createdAt,value
2018-08-14T00:00:35.749Z,77.00
2018-08-14T00:03:06.702Z,76.10
2018-08-14T00:05:40.308Z,76.40
2018-08-14T00:08:09.201Z,76.90
2018-08-14T00:10:37.959Z,77.10
2018-08-14T00:13:08.925Z,77.30
2018-08-14T00:15:37.973Z,77.50
2018-08-14T00:18:07.125Z,77.80
2018-08-14T00:20:36.603Z,78.10
2018-08-14T00:23:05.715Z,78.90
2018-08-14T00:25:34.909Z,78.20
2018-08-14T00:28:04.278Z,78.40
2018-08-14T00:30:34.625Z,78.40
2018-08-14T00:33:03.375Z,78.90
2018-08-14T00:35:32.149Z,78.80
2018-08-14T00:38:00.936Z,79.20
2018-08-14T00:40:30.998Z,79.20
2018-08-14T00:43:01.417Z,79.40
2018-08-14T00:45:30.166Z,79.50
2018-08-14T00:47:58.909Z,80.20
2018-08-14T00:50:27.676Z,80.50
2018-08-14T00:52:56.351Z,80.80
2018-08-14T00:55:25.137Z,81.20
2018-08-14T00:57:53.882Z,81.10
2018-08-14T01:00:29.560Z,81.30
2018-08-14T01:02:58.317Z,81.50
2018-08-14T01:05:27.454Z,81.70
2018-08-14T01:07:56.886Z,81.80
2018-08-14T01:10:25.662Z,81.80
2018-08-14T01:12:57.306Z,81.50
2018-08-14T01:15:27.230Z,81.20
2018-08-14T01:17:56.609Z,81.50
2018-08-14T01:20:27.607Z,81.30
2018-08-14T01:22:56.333Z,81.50
2018-08-14T01:25:25.101Z,81.80
2018-08-14T01:27:54.620Z,81.70
2018-08-14T01:30:25.699Z,82.10
2018-08-14T01:32:54.477Z,82.20
2018-08-14T01:35:23.196Z,82.10
2018-08-14T01:37:51.952Z,82.00
2018-08-14T01:40:20.712Z,81.90
2018-08-14T01:42:49.440Z,82.20
2018-08-14T01:45:18.228Z,82.20
2018-08-14T01:47:46.982Z,82.20
2018-08-14T01:50:19.881Z,82.40
2018-08-14T01:52:48.651Z,82.00
2018-08-14T01:55:18.301Z,81.80
2018-08-14T01:57:47.272Z,82.10
2018-08-14T02:00:16.109Z,82.10
2018-08-14T02:02:44.748Z,81.90
2018-08-14T02:05:13.496Z,82.40
2018-08-14T02:07:42.168Z,82.60
2018-08-14T02:10:13.821Z,82.90
2018-08-14T02:12:42.661Z,82.90
2018-08-14T02:15:13.680Z,83.00
2018-08-14T02:17:42.452Z,83.20
2018-08-14T02:20:14.440Z,83.40
2018-08-14T02:22:43.268Z,83.50
2018-08-14T02:25:12.092Z,83.10
2018-08-14T02:27:41.723Z,83.40
2018-08-14T02:30:10.515Z,83.00
2018-08-14T02:32:39.242Z,83.10
2018-08-14T02:35:08.869Z,83.20
2018-08-14T02:37:37.780Z,83.20
2018-08-14T02:40:07.496Z,83.10
2018-08-14T02:42:36.922Z,82.60
2018-08-14T02:45:06.451Z,82.60
2018-08-14T02:47:36.284Z,82.10
2018-08-14T02:50:05.401Z,81.90
2018-08-14T02:52:34.858Z,82.10
2018-08-14T02:55:03.601Z,82.10
2018-08-14T02:57:32.259Z,82.30
2018-08-14T03:00:00.990Z,82.50
2018-08-14T03:02:29.733Z,82.10
2018-08-14T03:04:58.400Z,82.90
2018-08-14T03:07:27.104Z,82.90
2018-08-14T03:09:55.750Z,83.20
2018-08-14T03:12:24.432Z,83.40
2018-08-14T03:14:57.033Z,83.80
2018-08-14T03:17:26.882Z,83.60
2018-08-14T03:19:55.690Z,83.50
2018-08-14T03:22:24.750Z,83.80
2018-08-14T03:24:53.824Z,83.80
2018-08-14T03:27:22.720Z,83.80
2018-08-14T03:29:51.392Z,83.60
2018-08-14T03:32:20.589Z,83.20
2018-08-14T03:34:49.244Z,82.70
2018-08-14T03:37:17.934Z,82.50
2018-08-14T03:39:46.627Z,82.30
2018-08-14T03:42:15.620Z,82.40
2018-08-14T03:44:44.401Z,82.50
2018-08-14T03:47:13.104Z,83.10
2018-08-14T03:49:42.039Z,83.50
2018-08-14T03:52:10.800Z,83.20
2018-08-14T03:54:39.557Z,84.00
2018-08-14T03:57:14.881Z,83.00
2018-08-14T03:59:43.613Z,82.60
2018-08-14T04:02:12.333Z,82.30
2018-08-14T04:04:41.037Z,81.80
2018-08-14T04:07:09.776Z,81.50
2018-08-14T04:09:38.754Z,81.30
2018-08-14T04:12:07.482Z,81.70
2018-08-14T04:14:36.994Z,81.70
2018-08-14T04:17:05.775Z,81.30
2018-08-14T04:19:34.829Z,81.10
2018-08-14T04:22:03.641Z,80.90
2018-08-14T04:24:32.393Z,80.40
2018-08-14T04:27:01.198Z,80.20
2018-08-14T04:29:29.948Z,80.00
2018-08-14T04:31:58.606Z,79.90
2018-08-14T04:34:27.325Z,79.80
2018-08-14T04:36:58.879Z,81.00
2018-08-14T04:39:27.510Z,80.70
2018-08-14T04:41:56.218Z,80.70
2018-08-14T04:44:24.887Z,81.00
2018-08-14T04:46:53.568Z,82.00
2018-08-14T04:49:22.268Z,82.60
2018-08-14T04:51:50.957Z,82.90
2018-08-14T04:54:19.605Z,82.60
2018-08-14T04:56:48.276Z,82.40
2018-08-14T04:59:16.923Z,82.30
2018-08-14T05:01:45.611Z,83.10
2018-08-14T05:04:14.490Z,83.40
2018-08-14T05:06:43.186Z,83.70
2018-08-14T05:09:13.616Z,83.80
2018-08-14T05:11:42.340Z,84.30
2018-08-14T05:14:10.972Z,84.50
2018-08-14T05:16:39.646Z,84.40
2018-08-14T05:19:08.522Z,84.20
2018-08-14T05:21:37.216Z,84.10
2018-08-14T05:24:05.974Z,83.60
2018-08-14T05:26:34.591Z,83.20
2018-08-14T05:29:03.341Z,82.70
2018-08-14T05:31:32.007Z,82.40
2018-08-14T05:34:00.673Z,82.00
2018-08-14T05:36:29.309Z,81.50
2018-08-14T05:38:57.993Z,81.80
2018-08-14T05:41:26.713Z,81.20
2018-08-14T05:43:56.002Z,81.10
2018-08-14T05:46:25.371Z,80.40
2018-08-14T05:48:54.069Z,80.10
2018-08-14T05:51:22.796Z,80.00
2018-08-14T05:53:51.450Z,79.90
2018-08-14T05:56:20.197Z,80.10
2018-08-14T05:58:48.848Z,79.70
2018-08-14T06:01:17.531Z,80.10
2018-08-14T06:03:46.275Z,80.30
2018-08-14T06:06:15.049Z,79.90
2018-08-14T06:08:43.762Z,79.40
2018-08-14T06:11:12.473Z,79.60
2018-08-14T06:13:41.108Z,79.20
2018-08-14T06:16:09.765Z,79.10
2018-08-14T06:18:38.480Z,78.80
2018-08-14T06:21:07.552Z,79.20
2018-08-14T06:23:36.879Z,78.80
2018-08-14T06:26:05.929Z,78.10
2018-08-14T06:28:35.636Z,78.10
2018-08-14T06:31:04.438Z,78.20
2018-08-14T06:33:33.095Z,77.50
2018-08-14T06:36:01.868Z,77.20
2018-08-14T06:38:30.577Z,76.60
2018-08-14T06:40:59.402Z,76.40
2018-08-14T06:43:28.175Z,76.50
2018-08-14T06:45:57.077Z,76.90
2018-08-14T06:48:25.758Z,76.80
2018-08-14T06:50:54.485Z,76.20
2018-08-14T06:53:23.200Z,75.80
2018-08-14T06:55:51.985Z,75.50
2018-08-14T06:58:20.664Z,75.10
2018-08-14T07:00:49.374Z,74.90
2018-08-14T07:03:18.122Z,74.60
2018-08-14T07:05:46.858Z,74.60
2018-08-14T07:08:15.724Z,74.90
2018-08-14T07:10:44.563Z,75.40
2018-08-14T07:13:13.332Z,75.80
2018-08-14T07:15:42.184Z,76.00
2018-08-14T07:18:11.400Z,76.00
2018-08-14T07:20:40.193Z,76.00
2018-08-14T07:23:09.012Z,76.00
2018-08-14T07:25:37.734Z,76.30
2018-08-14T07:28:06.642Z,76.30
2018-08-14T07:30:36.245Z,76.30
2018-08-14T07:33:05.059Z,77.00
2018-08-14T07:35:34.360Z,76.10
2018-08-14T07:38:03.076Z,76.00
2018-08-14T07:40:31.846Z,75.80
2018-08-14T07:43:00.537Z,75.20
2018-08-14T07:45:33.088Z,75.60
2018-08-14T07:48:02.182Z,76.00
2018-08-14T07:50:30.895Z,76.00
2018-08-14T07:52:59.644Z,75.70
2018-08-14T07:55:28.321Z,75.30
2018-08-14T07:57:57.136Z,75.30
2018-08-14T08:00:25.882Z,75.50
2018-08-14T08:02:54.717Z,75.10
2018-08-14T08:05:23.372Z,74.70
2018-08-14T08:07:52.216Z,74.40
2018-08-14T08:10:21.404Z,74.40
2018-08-14T08:12:50.125Z,74.80
2018-08-14T08:15:19.793Z,74.60
2018-08-14T08:17:49.591Z,74.50
2018-08-14T08:20:24.260Z,74.50
2018-08-14T08:22:52.968Z,74.50
2018-08-14T08:25:21.748Z,74.40
2018-08-14T08:27:50.408Z,74.00
2018-08-14T08:30:19.196Z,74.50
2018-08-14T08:32:47.911Z,74.40
2018-08-14T08:35:16.674Z,75.00
2018-08-14T08:37:45.431Z,75.50
2018-08-14T08:40:14.573Z,76.10
2018-08-14T08:42:43.323Z,76.80
2018-08-14T08:45:12.042Z,77.60
2018-08-14T08:47:41.221Z,78.40
2018-08-14T08:50:12.576Z,79.40
2018-08-14T08:52:41.387Z,80.10
2018-08-14T08:55:12.116Z,81.10
2018-08-14T08:57:40.796Z,81.20
2018-08-14T09:00:12.713Z,81.40
2018-08-14T09:02:41.776Z,81.30
2018-08-14T09:05:12.561Z,81.90
2018-08-14T09:07:41.336Z,81.10
2018-08-14T09:10:11.458Z,81.90
2018-08-14T09:12:40.993Z,82.80
2018-08-14T09:15:10.367Z,83.20
2018-08-14T09:17:40.534Z,83.50
2018-08-14T09:20:10.658Z,84.40
2018-08-14T09:22:39.468Z,84.30
2018-08-14T09:25:10.441Z,84.90
2018-08-14T09:27:39.965Z,84.50
2018-08-14T09:30:11.448Z,85.60
2018-08-14T09:32:40.709Z,85.80
2018-08-14T09:35:09.821Z,85.70
2018-08-14T09:37:39.619Z,85.30
2018-08-14T09:40:10.956Z,84.40
2018-08-14T09:42:39.780Z,84.80
2018-08-14T09:45:08.913Z,84.90
2018-08-14T09:47:38.008Z,84.70
2018-08-14T09:50:13.975Z,84.10
2018-08-14T09:52:43.126Z,83.50
2018-08-14T09:55:12.312Z,82.40
2018-08-14T09:57:40.968Z,82.50
2018-08-14T10:00:24.292Z,82.50
2018-08-14T10:02:59.014Z,82.40
2018-08-14T10:05:32.913Z,82.90
2018-08-14T10:08:15.753Z,83.30
2018-08-14T10:10:44.428Z,82.70
2018-08-14T10:13:14.612Z,82.90
2018-08-14T10:15:43.396Z,82.60
2018-08-14T10:18:16.888Z,83.00
2018-08-14T10:20:45.702Z,83.50
2018-08-14T10:23:14.416Z,84.70
2018-08-14T10:25:43.213Z,85.80
2018-08-14T10:28:13.898Z,85.50
2018-08-14T10:30:42.684Z,85.60
2018-08-14T10:33:11.473Z,85.80
2018-08-14T10:35:46.849Z,86.10
2018-08-14T10:38:15.601Z,86.00
2018-08-14T10:40:44.548Z,85.80
2018-08-14T10:43:28.329Z,85.70
2018-08-14T10:45:59.233Z,86.60
2018-08-14T10:48:27.918Z,87.30
2018-08-14T10:50:57.992Z,87.10
2018-08-14T10:53:27.148Z,86.80
2018-08-14T10:55:58.000Z,86.90
2018-08-14T10:58:26.724Z,86.90
2018-08-14T11:00:57.976Z,87.20
2018-08-14T11:03:26.679Z,87.70
2018-08-14T11:05:55.412Z,87.20
2018-08-14T11:08:24.083Z,87.90
2018-08-14T11:10:58.127Z,87.30
2018-08-14T11:13:27.821Z,86.80
2018-08-14T11:15:57.200Z,87.70
2018-08-14T11:18:25.964Z,87.30
2018-08-14T11:20:54.716Z,87.60
2018-08-14T11:23:23.444Z,87.50
2018-08-14T11:25:52.135Z,87.50
2018-08-14T11:28:20.918Z,86.90
2018-08-14T11:30:49.642Z,87.00
2018-08-14T11:33:18.926Z,88.20
2018-08-14T11:35:52.883Z,88.10
2018-08-14T11:38:21.647Z,88.40
2018-08-14T11:40:50.973Z,88.40
2018-08-14T11:43:19.785Z,88.60
2018-08-14T11:45:48.556Z,88.60
2018-08-14T11:48:17.288Z,88.90
2018-08-14T11:50:46.014Z,88.90
2018-08-14T11:53:14.762Z,88.90
2018-08-14T11:55:43.552Z,88.00
2018-08-14T11:58:12.924Z,88.80
2018-08-14T12:00:41.963Z,89.30
2018-08-14T12:03:10.792Z,89.60
2018-08-14T12:05:40.084Z,89.70
2018-08-14T12:08:08.821Z,89.40
2018-08-14T12:10:37.609Z,89.60
2018-08-14T12:13:06.373Z,89.00
2018-08-14T12:15:36.230Z,89.10
2018-08-14T12:18:05.184Z,89.00
2018-08-14T12:20:34.081Z,90.00
2018-08-14T12:23:02.813Z,90.00
2018-08-14T12:25:31.573Z,90.10
2018-08-14T12:28:00.473Z,90.00
2018-08-14T12:30:29.276Z,90.10
2018-08-14T12:32:58.066Z,90.20
2018-08-14T12:35:26.813Z,90.70
2018-08-14T12:37:55.546Z,91.20
2018-08-14T12:40:24.296Z,90.50
2018-08-14T12:42:53.019Z,91.10
2018-08-14T12:45:23.182Z,90.90
2018-08-14T12:47:52.641Z,91.20
2018-08-14T12:50:22.154Z,90.80
2018-08-14T12:52:50.977Z,90.70
2018-08-14T12:55:19.804Z,90.40
2018-08-14T12:57:48.857Z,90.50
2018-08-14T13:00:24.304Z,90.60
2018-08-14T13:02:53.931Z,90.70
2018-08-14T13:05:23.725Z,90.70
2018-08-14T13:07:52.701Z,91.00
2018-08-14T13:10:21.522Z,90.80
2018-08-14T13:12:50.268Z,90.30
2018-08-14T13:15:19.068Z,90.70
2018-08-14T13:17:57.810Z,90.60
2018-08-14T13:20:26.758Z,90.00
2018-08-14T13:22:57.493Z,90.40
2018-08-14T13:25:26.408Z,89.70
2018-08-14T13:27:55.343Z,89.60
2018-08-14T13:30:24.253Z,89.30
2018-08-14T13:32:53.895Z,88.10
2018-08-14T13:35:22.588Z,88.80
2018-08-14T13:37:52.020Z,87.50
2018-08-14T13:40:26.205Z,86.30
2018-08-14T13:42:55.216Z,84.80
2018-08-14T13:45:24.001Z,82.30
2018-08-14T13:47:54.842Z,81.30
2018-08-14T13:50:28.711Z,80.90
2018-08-14T13:52:57.762Z,81.70
2018-08-14T13:55:26.610Z,78.20
2018-08-14T13:57:55.316Z,75.90
2018-08-14T14:00:28.325Z,76.30
2018-08-14T14:02:57.073Z,76.20
2018-08-14T14:05:25.852Z,76.00
2018-08-14T14:07:54.594Z,75.30
2018-08-14T14:10:24.043Z,75.10
2018-08-14T14:12:52.883Z,70.60
2018-08-14T14:15:24.228Z,69.10
2018-08-14T14:17:54.199Z,66.30
2018-08-14T14:20:25.201Z,65.90
2018-08-14T14:22:54.166Z,65.80
2018-08-14T14:25:23.151Z,65.80
2018-08-14T14:27:51.949Z,65.90
2018-08-14T14:30:20.773Z,65.80
2018-08-14T14:32:49.571Z,66.20
2018-08-14T14:35:19.901Z,67.10
2018-08-14T14:37:49.850Z,67.40
2018-08-14T14:40:21.951Z,68.00
2018-08-14T14:42:52.219Z,68.80
2018-08-14T14:45:21.292Z,68.30
2018-08-14T14:47:54.334Z,68.00
2018-08-14T14:50:23.128Z,68.30
2018-08-14T14:52:52.970Z,68.40
2018-08-14T14:55:23.301Z,68.90
2018-08-14T14:57:53.620Z,69.30
2018-08-14T15:00:25.275Z,69.20
2018-08-14T15:02:55.299Z,70.00
2018-08-14T15:05:24.494Z,70.60
2018-08-14T15:07:54.719Z,70.80
2018-08-14T15:10:23.630Z,71.20
2018-08-14T15:12:52.933Z,70.70
2018-08-14T15:15:21.692Z,71.00
2018-08-14T15:17:51.287Z,71.00
2018-08-14T15:20:25.214Z,70.90
2018-08-14T15:22:59.507Z,70.30
2018-08-14T15:25:29.341Z,69.70
2018-08-14T15:29:18.314Z,69.40
2018-08-14T15:31:53.026Z,69.60
2018-08-14T15:34:25.019Z,69.60
2018-08-14T15:36:57.869Z,69.70
2018-08-14T15:39:27.200Z,70.00
2018-08-14T15:41:56.766Z,69.80
2018-08-14T15:44:25.970Z,69.80
2018-08-14T15:46:54.712Z,69.70
2018-08-14T15:49:24.422Z,69.80
2018-08-14T15:51:54.146Z,69.60
2018-08-14T15:54:22.928Z,69.60
2018-08-14T15:56:51.722Z,68.90
2018-08-14T15:59:20.529Z,68.80
2018-08-14T16:01:49.313Z,68.70
2018-08-14T16:04:19.043Z,68.20
2018-08-14T16:06:47.804Z,68.10
2018-08-14T16:09:21.520Z,67.50
2018-08-14T16:11:50.873Z,67.20
2018-08-14T16:14:19.679Z,67.30
2018-08-14T16:16:48.468Z,67.30
2018-08-14T16:19:17.777Z,67.50
2018-08-14T16:21:46.477Z,67.00
2018-08-14T16:24:16.822Z,67.20
2018-08-14T16:26:45.622Z,67.80
2018-08-14T16:29:14.345Z,66.60
2018-08-14T16:31:43.808Z,66.70
2018-08-14T16:34:12.634Z,67.50
2018-08-14T16:36:41.343Z,66.60
2018-08-14T16:39:11.941Z,66.50
2018-08-14T16:41:40.845Z,66.60
2018-08-14T16:44:09.600Z,67.20
2018-08-14T16:46:38.687Z,67.10
2018-08-14T16:49:07.441Z,67.40
2018-08-14T16:51:36.870Z,67.40
2018-08-14T16:54:05.579Z,67.30
2018-08-14T16:56:34.882Z,67.40
2018-08-14T16:59:03.685Z,66.50
2018-08-14T17:01:32.393Z,66.40
2018-08-14T17:04:01.063Z,66.50
2018-08-14T17:06:29.826Z,66.20
2018-08-14T17:08:58.562Z,66.20
2018-08-14T17:11:27.357Z,66.10
2018-08-14T17:13:56.662Z,66.70
2018-08-14T17:16:25.454Z,65.40
2018-08-14T17:18:54.180Z,65.20
2018-08-14T17:21:21.584Z,64.60
2018-08-14T17:23:50.214Z,63.90
2018-08-14T17:26:18.886Z,63.60
2018-08-14T17:28:47.606Z,63.80
2018-08-14T17:31:16.334Z,64.00
2018-08-14T17:33:45.169Z,64.40
2018-08-14T17:36:13.908Z,64.60
2018-08-14T17:38:42.686Z,64.90
2018-08-14T17:41:11.434Z,65.10
2018-08-14T17:43:40.121Z,65.30
2018-08-14T17:46:08.877Z,65.70
2018-08-14T17:48:37.546Z,65.70
2018-08-14T17:51:06.413Z,65.10
2018-08-14T17:53:35.145Z,65.10
2018-08-14T17:56:03.876Z,65.40
2018-08-14T17:58:32.567Z,65.50
2018-08-14T18:01:01.504Z,65.70
2018-08-14T18:03:30.173Z,66.00
2018-08-14T18:05:58.900Z,66.10
2018-08-14T18:08:27.624Z,66.20
2018-08-14T18:10:56.385Z,66.20
2018-08-14T18:13:25.156Z,66.10
2018-08-14T18:15:53.896Z,66.20
2018-08-14T18:18:22.574Z,66.20
2018-08-14T18:20:51.252Z,66.40
2018-08-14T18:23:21.075Z,66.50
2018-08-14T18:25:50.284Z,66.20
2018-08-14T18:28:19.017Z,66.30
2018-08-14T18:30:47.885Z,66.40
2018-08-14T18:33:16.776Z,66.50
2018-08-14T18:35:45.740Z,66.80
2018-08-14T18:38:14.484Z,66.80
2018-08-14T18:40:43.240Z,67.00
2018-08-14T18:43:11.956Z,67.00
2018-08-14T18:45:40.665Z,66.80
2018-08-14T18:48:09.401Z,66.70
2018-08-14T18:50:38.066Z,66.80
2018-08-14T18:53:06.904Z,67.00
2018-08-14T18:55:36.901Z,67.10
2018-08-14T18:58:05.832Z,67.10
2018-08-14T19:00:34.848Z,67.40
2018-08-14T19:03:03.802Z,67.30
2018-08-14T19:05:32.909Z,67.50
2018-08-14T19:08:01.650Z,67.50
2018-08-14T19:10:30.353Z,67.70
2018-08-14T19:12:59.172Z,67.70
2018-08-14T19:15:33.536Z,67.70
2018-08-14T19:18:02.259Z,67.60
2018-08-14T19:20:30.986Z,67.80
2018-08-14T19:22:59.784Z,68.00
2018-08-14T19:25:28.415Z,68.10
2018-08-14T19:27:57.144Z,68.10
2018-08-14T19:30:25.779Z,68.40
2018-08-14T19:32:54.554Z,68.20
2018-08-14T19:35:23.197Z,68.20
2018-08-14T19:37:51.904Z,68.20
2018-08-14T19:40:22.564Z,68.40
2018-08-14T19:42:51.515Z,68.50
2018-08-14T19:45:20.320Z,68.60
2018-08-14T19:47:49.146Z,68.40
2018-08-14T19:50:19.031Z,68.70
2018-08-14T19:52:47.895Z,68.90
2018-08-14T19:55:18.128Z,68.90
2018-08-14T19:57:48.305Z,69.20
2018-08-14T20:00:23.209Z,69.10
2018-08-14T20:02:52.399Z,69.80
2018-08-14T20:05:21.078Z,69.40
2018-08-14T20:07:50.190Z,69.40
2018-08-14T20:10:19.535Z,69.40
2018-08-14T20:12:48.570Z,69.30
2018-08-14T20:15:22.543Z,69.60
2018-08-14T20:17:51.361Z,69.50
2018-08-14T20:20:20.095Z,69.60
2018-08-14T20:22:48.822Z,69.50
2018-08-14T20:25:17.592Z,69.30
2018-08-14T20:27:46.341Z,69.20
2018-08-14T20:30:17.170Z,70.10
2018-08-14T20:32:47.099Z,69.40
2018-08-14T20:35:16.694Z,69.50
2018-08-14T20:37:46.336Z,70.10
2018-08-14T20:40:17.375Z,69.20
2018-08-14T20:42:46.176Z,69.20
2018-08-14T20:45:15.242Z,68.90
2018-08-14T20:47:45.263Z,69.00
2018-08-14T20:50:16.803Z,69.10
2018-08-14T20:52:46.182Z,69.00
2018-08-14T20:55:15.436Z,68.80
2018-08-14T20:57:44.651Z,68.70
2018-08-14T21:00:21.132Z,68.70
2018-08-14T21:02:50.608Z,68.40
2018-08-14T21:05:19.614Z,68.70
2018-08-14T21:07:48.572Z,68.50
2018-08-14T21:10:17.896Z,68.20
2018-08-14T21:12:47.437Z,68.00
2018-08-14T21:15:21.061Z,67.90
2018-08-14T21:17:49.807Z,68.00
2018-08-14T21:20:19.208Z,68.00
2018-08-14T21:22:48.701Z,68.00
2018-08-14T21:25:17.858Z,67.80
2018-08-14T21:27:46.654Z,67.80
2018-08-14T21:30:16.684Z,67.70
2018-08-14T21:32:45.473Z,67.80
2018-08-14T21:35:15.800Z,68.20
2018-08-14T21:37:44.657Z,68.10
2018-08-14T21:40:15.321Z,68.20
2018-08-14T21:42:46.287Z,68.00
2018-08-14T21:45:16.237Z,68.20
2018-08-14T21:47:45.300Z,67.90
2018-08-14T21:50:14.111Z,67.90
2018-08-14T21:52:42.806Z,68.10
2018-08-14T21:55:12.568Z,67.70
2018-08-14T21:57:42.190Z,68.00
2018-08-14T22:00:21.728Z,68.00
2018-08-14T22:02:50.946Z,68.20
2018-08-14T22:05:19.800Z,68.00
2018-08-14T22:07:48.472Z,67.90
2018-08-14T22:10:19.854Z,68.10
2018-08-14T22:12:49.284Z,68.30
2018-08-14T22:15:18.142Z,68.70
2018-08-14T22:17:46.901Z,68.80
2018-08-14T22:20:16.316Z,69.80
2018-08-14T22:22:45.438Z,69.20
2018-08-14T22:25:14.236Z,69.30
2018-08-14T22:27:42.919Z,69.20
2018-08-14T22:30:13.521Z,69.10
2018-08-14T22:32:42.664Z,69.30
2018-08-14T22:35:11.368Z,69.20
2018-08-14T22:37:40.092Z,68.80
2018-08-14T22:40:09.306Z,68.70
2018-08-14T22:42:38.180Z,68.50
2018-08-14T22:45:08.450Z,68.40
2018-08-14T22:47:38.327Z,68.10
2018-08-14T22:50:07.766Z,67.70
2018-08-14T22:52:43.121Z,67.60
2018-08-14T22:55:11.913Z,67.30
2018-08-14T22:57:42.108Z,67.60
2018-08-14T23:00:14.244Z,66.90
2018-08-14T23:02:42.990Z,66.80
2018-08-14T23:05:12.124Z,66.70
2018-08-14T23:07:41.108Z,66.90
2018-08-14T23:10:10.366Z,66.50
2018-08-14T23:12:39.095Z,66.40
2018-08-14T23:15:10.352Z,66.10
2018-08-14T23:17:39.244Z,66.00
2018-08-14T23:20:10.149Z,65.90
2018-08-14T23:22:39.250Z,65.80
2018-08-14T23:25:08.729Z,66.00
2018-08-14T23:27:38.139Z,65.70
2018-08-14T23:30:10.669Z,65.40
2018-08-14T23:32:39.582Z,65.10
2018-08-14T23:35:08.672Z,65.20
2018-08-14T23:37:38.393Z,64.60
2018-08-14T23:40:08.911Z,64.50
2018-08-14T23:42:41.917Z,64.20
2018-08-14T23:45:11.144Z,64.60
2018-08-14T23:47:39.861Z,64.50
2018-08-14T23:50:12.754Z,64.50
2018-08-14T23:52:41.708Z,64.70
2018-08-14T23:55:10.986Z,64.20
2018-08-14T23:57:39.832Z,64.30
